Time;durP1;ratioP1;P1;durP2;ratioP2;P2;SDS_P1;SDS_P2;PMS_P1;PMS_P2;Temp;Humidity;BMP_temperature;BMP_pressure;BME280_temperature;BME280_humidity;BME280_pressure;Samples;Min_cycle;Max_cycle;Signal;HPM_P1;HPM_P2
2021/01/12 00:01:23;;;;;;;58.00;39.00;;;;;;;;;;14949573;29;20907;-79
2021/01/12 00:08:51;;;;;;;58.40;39.47;;;;;;;;;;14950446;29;20658;-79
2021/01/12 00:16:19;;;;;;;60.53;39.77;;;;;;;;;;14951241;29;20211;-78
2021/01/12 00:23:47;;;;;;;58.83;38.60;;;;;;;;;;14961385;29;20207;-81
2021/01/12 00:31:15;;;;;;;61.17;41.33;;;;;;;;;;14962025;29;20206;-78
2021/01/12 00:38:42;;;;;;;57.17;40.17;;;;;;;;;;14943612;29;20238;-81
2021/01/12 00:46:09;;;;;;;65.60;43.50;;;;;;;;;;14943606;29;20296;-78
2021/01/12 00:53:37;;;;;;;61.03;39.23;;;;;;;;;;14944499;29;20666;-80
2021/01/12 01:01:13;;;;;;;59.87;40.57;;;;;;;;;;14957914;29;20349;-78
2021/01/12 01:08:45;;;;;;;123.10;75.57;;;3.00;71.40;;;;;;14957256;29;20547;-75
2021/01/12 01:16:13;;;;;;;64.10;40.40;;;;;;;;;;14935700;29;20318;-83
2021/01/12 01:23:43;;;;;;;60.87;39.17;;;;;;;;;;14971804;29;20262;-82
2021/01/12 01:31:15;;;;;;;60.30;40.03;;;;;;;;;;14988904;29;20546;-85
2021/01/12 01:38:47;;;;;;;62.33;39.17;;;;;;;;;;14946200;29;20655;-83
2021/01/12 01:46:16;;;;;;;62.90;40.80;;;;;;;;;;14958850;29;20251;-84
2021/01/12 01:53:48;;;;;;;66.67;43.27;;;0.20;68.20;;;;;;14959989;29;20209;-83
2021/01/12 02:01:18;;;;;;;65.93;40.97;;;;;;;;;;14943126;29;20337;-84
2021/01/12 02:08:52;;;;;;;63.83;41.27;;;;;;;;;;14948609;29;20231;-83
2021/01/12 02:16:28;;;;;;;70.33;43.77;;;1.80;70.20;;;;;;14943739;29;20238;-81
2021/01/12 02:23:58;;;;;;;69.27;41.53;;;0.20;70.60;;;;;;14959135;29;20206;-80
2021/01/12 02:31:31;;;;;;;68.87;41.07;;;;;;;;;;14956512;29;20194;-82
2021/01/12 02:39:01;;;;;;;62.30;39.67;;;;;;;;;;14956207;29;20214;-81
2021/01/12 02:46:29;;;;;;;66.33;42.10;;;;;;;;;;14940403;29;20595;-80
2021/01/12 02:53:57;;;;;;;63.60;39.87;;;;;;;;;;14956332;29;20187;-81
2021/01/12 03:01:25;;;;;;;61.80;38.27;;;;;;;;;;14953067;29;20242;-81
2021/01/12 03:08:52;;;;;;;62.70;38.60;;;;;;;;;;14953820;29;20540;-81
2021/01/12 03:16:19;;;;;;;60.47;37.77;;;;;;;;;;14955652;29;20588;-80
2021/01/12 03:23:48;;;;;;;59.37;36.47;;;;;;;;;;14952734;29;20625;-81
2021/01/12 03:31:14;;;;;;;57.93;37.50;;;;;;;;;;14953835;29;20183;-80
2021/01/12 03:38:41;;;;;;;55.13;33.67;;;;;;;;;;14953083;29;20223;-79
2021/01/12 03:46:08;;;;;;;59.03;34.80;;;;;;;;;;14952110;29;20712;-80
2021/01/12 03:53:36;;;;;;;54.87;35.73;;;;;;;;;;14951966;29;20235;-79
2021/01/12 04:01:02;;;;;;;55.63;33.50;;;;;;;;;;14920556;29;20279;-80
2021/01/12 04:08:29;;;;;;;56.10;34.10;;;;;;;;;;14936179;29;20262;-78
2021/01/12 04:15:56;;;;;;;53.87;32.33;;;;;;;;;;14951967;29;20694;-79
2021/01/12 04:23:24;;;;;;;48.20;30.50;;;;;;;;;;14952015;29;20282;-78
2021/01/12 04:30:51;;;;;;;56.97;31.77;;;;;;;;;;14952188;29;20210;-78
2021/01/12 04:38:20;;;;;;;47.70;30.57;;;;;;;;;;14950959;29;20693;-78
2021/01/12 04:45:47;;;;;;;48.97;31.13;;;;;;;;;;14951346;29;20694;-79
2021/01/12 04:53:15;;;;;;;47.90;29.93;;;;;;;;;;14919687;29;20666;-80
2021/01/12 05:00:42;;;;;;;47.90;28.93;;;;;;;;;;14950668;29;20569;-77
2021/01/12 05:08:10;;;;;;;52.57;30.03;;;-1.20;73.10;;;;;;14957406;29;20203;-79
2021/01/12 05:15:38;;;;;;;51.77;31.03;;;;;;;;;;14959659;29;20580;-78
2021/01/12 05:23:08;;;;;;;53.23;30.87;;;-0.20;73.90;;;;;;14944249;29;20278;-77
2021/01/12 05:30:35;;;;;;;53.27;30.33;;;;;;;;;;14960124;29;20234;-79
2021/01/12 05:38:04;;;;;;;55.03;30.27;;;-1.10;73.50;;;;;;14960061;29;20233;-78
2021/01/12 05:45:33;;;;;;;54.30;31.43;;;;;;;;;;14958873;29;20254;-77
2021/01/12 05:53:06;;;;;;;60.47;31.57;;;-0.60;73.40;;;;;;14959266;29;20203;-78
2021/01/12 06:00:32;;;;;;;60.77;33.87;;;;;;;;;;14941857;29;20238;-78
2021/01/12 06:07:59;;;;;;;54.30;30.23;;;;;;;;;;14939739;29;20561;-76
2021/01/12 06:15:28;;;;;;;55.73;30.13;;;-1.50;72.90;;;;;;14955731;29;20223;-77
2021/01/12 06:23:01;;;;;;;53.37;28.60;;;-0.10;73.70;;;;;;14957968;29;20215;-77
2021/01/12 06:30:30;;;;;;;53.97;31.03;;;;;;;;;;14957155;29;20214;-80
2021/01/12 06:38:03;;;;;;;51.77;30.07;;;-0.50;74.20;;;;;;14954079;29;20218;-78
2021/01/12 06:45:31;;;;;;;51.30;29.03;;;;;;;;;;14954794;29;20230;-79
2021/01/12 06:52:58;;;;;;;50.87;29.73;;;;;;;;;;14954611;29;20226;-77
2021/01/12 07:00:26;;;;;;;55.97;30.60;;;;;;;;;;14935100;29;20238;-77
2021/01/12 07:07:56;;;;;;;59.90;31.57;;;;;;;;;;14935066;29;20203;-78
2021/01/12 07:15:25;;;;;;;58.00;30.87;;;;;;;;;;14936052;29;20258;-76
2021/01/12 07:22:53;;;;;;;54.77;30.93;;;;;;;;;;14952762;29;20217;-77
2021/01/12 07:30:23;;;;;;;54.43;31.27;;;;;;;;;;14933283;29;20226;-77
2021/01/12 07:37:54;;;;;;;55.70;32.10;;;;;;;;;;14956912;29;20239;-78
2021/01/12 07:45:24;;;;;;;56.67;31.17;;;;;;;;;;14953479;29;20250;-78
2021/01/12 07:52:54;;;;;;;60.00;32.43;;;;;;;;;;14949071;29;20222;-78
2021/01/12 08:00:21;;;;;;;53.93;32.47;;;;;;;;;;14931077;29;20237;-77
2021/01/12 08:07:49;;;;;;;56.33;32.27;;;;;;;;;;14949103;29;20198;-77
2021/01/12 08:15:21;;;;;;;59.80;33.63;;;;;;;;;;14948903;29;20238;-77
2021/01/12 08:22:53;;;;;;;56.90;32.50;;;1.30;74.80;;;;;;14931612;29;20230;-78
2021/01/12 08:30:21;;;;;;;60.13;33.13;;;;;;;;;;14931206;29;20194;-75
2021/01/12 08:37:49;;;;;;;61.70;33.97;;;;;;;;;;14936969;29;20227;-78
2021/01/12 08:45:18;;;;;;;59.77;32.47;;;;;;;;;;14959199;29;20226;-78
2021/01/12 08:52:54;;;;;;;93.33;49.17;;;1.20;74.30;;;;;;14958701;29;20457;-77
2021/01/12 09:00:31;;;;;;;78.33;40.70;;;;;;;;;;14941518;29;20721;-77
2021/01/12 09:08:02;;;;;;;74.70;41.87;;;;;;;;;;14957094;29;20653;-77
2021/01/12 09:15:31;;;;;;;73.10;40.77;;;;;;;;;;14957242;29;20289;-77
2021/01/12 09:23:05;;;;;;;65.67;37.53;;;;;;;;;;14925159;29;20575;-78
2021/01/12 09:30:45;;;;;;;70.37;39.73;;;0.70;75.10;;;;;;14957231;29;20210;-77
2021/01/12 09:38:12;;;;;;;68.77;38.20;;;;;;;;;;14941801;29;20214;-80
2021/01/12 09:45:43;;;;;;;65.33;36.60;;;;;;;;;;14957020;29;20240;-78
2021/01/12 09:53:13;;;;;;;57.83;35.87;;;;;;;;;;14955673;29;20273;-79
2021/01/12 10:00:44;;;;;;;91.97;53.57;;;;;;;;;;14955926;29;20646;-82
2021/01/12 10:08:17;;;;;;;60.80;36.47;;;;;;;;;;14954710;29;20195;-76
2021/01/12 10:15:48;;;;;;;58.97;35.70;;;;;;;;;;14939690;29;20238;-76
2021/01/12 10:23:15;;;;;;;56.60;33.43;;;;;;;;;;14954336;29;20609;-78
2021/01/12 10:30:42;;;;;;;58.03;35.20;;;;;;;;;;14954370;29;20194;-77
2021/01/12 10:38:13;;;;;;;66.80;36.33;;;1.50;79.80;;;;;;14938322;29;20220;-78
2021/01/12 10:45:41;;;;;;;60.80;36.47;;;;;;;;;;14954572;29;20233;-77
2021/01/12 10:53:11;;;;;;;59.90;35.33;;;;;;;;;;14952567;29;20270;-78
2021/01/12 11:00:41;;;;;;;67.20;41.53;;;;;;;;;;14952775;29;20238;-78
2021/01/12 11:08:16;;;;;;;59.50;36.83;;;;;;;;;;14934287;29;20199;-76
2021/01/12 11:15:45;;;;;;;62.63;38.37;;;;;;;;;;14948454;29;20217;-78
2021/01/12 11:23:16;;;;;;;62.37;38.63;;;;;;;;;;14951198;29;20274;-77
2021/01/12 11:30:44;;;;;;;58.77;37.47;;;;;;;;;;14951468;29;20754;-76
2021/01/12 11:38:12;;;;;;;58.80;38.03;;;;;;;;;;14948691;29;20720;-76
2021/01/12 11:45:40;;;;;;;60.83;39.63;;;;;;;;;;14946067;29;20234;-78
2021/01/12 11:53:07;;;;;;;62.17;37.37;;;;;;;;;;14948762;29;20243;-79
2021/01/12 12:00:35;;;;;;;60.60;36.27;;;;;;;;;;14948514;29;20286;-78
2021/01/12 12:08:02;;;;;;;56.57;38.47;;;;;;;;;;14949033;29;20210;-77
2021/01/12 12:15:31;;;;;;;68.20;46.63;;;;;;;;;;14931349;29;20219;-77
2021/01/12 12:22:58;;;;;;;69.40;45.57;;;;;;;;;;14947112;29;20217;-78
2021/01/12 12:30:26;;;;;;;78.40;48.10;;;;;;;;;;14918191;29;20195;-80
2021/01/12 12:37:54;;;;;;;74.30;48.07;;;;;;;;;;14945193;29;20199;-77
2021/01/12 12:45:22;;;;;;;66.63;44.93;;;;;;;;;;14931274;29;20278;-79
2021/01/12 12:53:00;;;;;;;65.50;41.03;;;;;;;;;;14947987;29;20221;-81
2021/01/12 13:00:29;;;;;;;58.80;40.77;;;;;;;;;;14942828;29;20684;-81
2021/01/12 13:08:00;;;;;;;54.37;37.90;;;;;;;;;;14922846;29;20218;-80
2021/01/12 13:15:28;;;;;;;60.33;35.73;;;;;;;;;;14945623;29;20274;-80
2021/01/12 13:22:57;;;;;;;51.47;33.43;;;;;;;;;;14934532;29;20580;-80
2021/01/12 13:30:27;;;;;;;51.83;35.53;;;;;;;;;;14941210;29;20282;-79
2021/01/12 13:37:55;;;;;;;47.43;30.37;;;;;;;;;;14940676;29;20203;-78
2021/01/12 13:45:27;;;;;;;39.33;27.47;;;;;;;;;;14958135;29;20233;-78
2021/01/12 13:52:58;;;;;;;36.33;26.67;;;;;;;;;;14957047;29;20194;-79
2021/01/12 14:00:34;;;;;;;42.40;29.80;;;;;;;;;;14940536;29;20250;-78
2021/01/12 14:08:05;;;;;;;42.90;31.73;;;;;;;;;;14954431;29;20222;-78
2021/01/12 14:15:38;;;;;;;49.23;34.00;;;;;;;;;;14954853;29;20764;-82
2021/01/12 14:23:05;;;;;;;49.83;35.13;;;;;;;;;;14955148;29;20736;-81
2021/01/12 14:30:38;;;;;;;55.23;38.10;;;;;;;;;;14954273;29;20634;-80
2021/01/12 14:38:20;;;;;;;57.67;37.00;;;;;;;;;;14936291;29;20707;-78
2021/01/12 14:46:00;;;;;;;55.23;36.93;;;;;;;;;;14934636;29;20286;-78
2021/01/12 14:53:29;;;;;;;58.07;38.90;;;4.40;70.20;;;;;;14924128;29;20702;-78
2021/01/12 15:00:58;;;;;;;62.10;38.63;;;;;;;;;;14919718;29;20269;-77
2021/01/12 15:08:28;;;;;;;180.87;113.10;;;;;;;;;;14935252;29;20206;-81
2021/01/12 15:15:56;;;;;;;57.23;39.93;;;;;;;;;;14955663;29;20665;-80
2021/01/12 15:23:24;;;;;;;58.47;38.57;;;;;;;;;;14949545;29;20233;-80
2021/01/12 15:30:51;;;;;;;50.13;35.77;;;;;;;;;;14930197;29;20213;-81
2021/01/12 15:38:19;;;;;;;54.43;37.23;;;;;;;;;;14947837;29;20206;-80
2021/01/12 15:45:50;;;;;;;53.10;36.97;;;;;;;;;;14950458;29;20229;-79
2021/01/12 15:53:16;;;;;;;52.90;36.43;;;;;;;;;;14934831;29;20646;-81
2021/01/12 16:00:45;;;;;;;57.77;38.33;;;;;;;;;;14949362;29;20694;-82
2021/01/12 16:08:14;;;;;;;51.13;37.17;;;;;;;;;;14934109;29;20212;-81
2021/01/12 16:15:42;;;;;;;52.27;36.87;;;;;;;;;;14949124;29;20236;-79
2021/01/12 16:23:17;;;;;;;53.73;37.47;;;3.50;72.20;;;;;;14949264;29;20561;-80
2021/01/12 16:30:47;;;;;;;54.90;38.50;;;;;;;;;;14948494;29;20187;-79
2021/01/12 16:38:17;;;;;;;56.53;39.70;;;;;;;;;;14950644;29;20262;-78
2021/01/12 16:45:52;;;;;;;56.07;38.53;;;;;;;;;;14950424;29;20261;-79
2021/01/12 16:53:39;;;;;;;58.40;39.93;;;;;;;;;;14948258;29;20633;-77
2021/01/12 17:01:06;;;;;;;60.97;40.33;;;;;;;;;;14939957;29;20242;-79
2021/01/12 17:08:40;;;;;;;71.07;44.53;;;;;;;;;;14958670;29;20201;-79
2021/01/12 17:16:17;;;;;;;66.20;45.17;;;;;;;;;;14957818;29;20605;-81
2021/01/12 17:23:51;;;;;;;68.93;45.50;;;;;;;;;;14943801;29;20281;-78
2021/01/12 17:31:24;;;;;;;66.87;45.80;;;;;;;;;;14943055;29;20191;-79
2021/01/12 17:39:07;;;;;;;70.40;46.97;;;;;;;;;;14945471;29;20700;-80
2021/01/12 17:46:35;;;;;;;65.30;44.60;;;;;;;;;;14944596;29;20225;-77
2021/01/12 17:54:19;;;;;;;68.20;44.90;;;;;;;;;;14956620;29;20214;-80
2021/01/12 18:01:56;;;;;;;64.60;43.70;;;2.60;72.80;;;;;;14956732;29;20235;-81
2021/01/12 18:09:30;;;;;;;66.03;45.13;;;;;;;;;;14936715;29;20218;-79
2021/01/12 18:17:05;;;;;;;65.10;47.17;;;4.50;72.30;;;;;;14947678;29;20461;-81
2021/01/12 18:24:35;;;;;;;59.07;42.30;;;;;;;;;;14951477;29;20579;-80
2021/01/12 18:32:08;;;;;;;58.50;42.30;;;;;;;;;;14938204;29;20183;-79
2021/01/12 18:39:36;;;;;;;61.63;42.23;;;;;;;;;;14955307;29;20773;-83
2021/01/12 18:47:04;;;;;;;62.03;42.17;;;;;;;;;;14956047;29;20187;-77
2021/01/12 18:54:38;;;;;;;65.27;42.50;;;4.00;72.70;;;;;;14922895;29;20238;-77
2021/01/12 19:02:07;;;;;;;64.37;41.43;;;;;;;;;;14954123;29;20240;-79
2021/01/12 19:09:34;;;;;;;67.07;44.87;;;;;;;;;;14946371;29;20226;-78
2021/01/12 19:17:07;;;;;;;74.40;48.40;;;4.60;72.20;;;;;;14937166;29;20210;-76
2021/01/12 19:24:34;;;;;;;75.40;48.97;;;;;;;;;;14937975;29;20548;-79
2021/01/12 19:32:03;;;;;;;79.68;54.70;;;;;;;;;;14918304;29;20591;-78
2021/01/12 19:39:35;;;;;;;81.50;52.03;;;;;;;;;;14877871;29;20287;-78
2021/01/12 19:47:02;;;;;;;82.70;50.27;;;;;;;;;;14895791;29;20195;-76
2021/01/12 19:54:32;;;;;;;88.17;52.43;;;;;;;;;;14896169;29;20199;-77
2021/01/12 20:02:00;;;;;;;84.53;51.70;;;;;;;;;;14897348;29;20291;-83
2021/01/12 20:09:27;;;;;;;77.43;50.87;;;;;;;;;;14899202;29;20227;-79
2021/01/12 20:16:56;;;;;;;81.40;51.30;;;;;;;;;;14877868;29;20634;-79
2021/01/12 20:24:29;;;;;;;81.67;49.67;;;4.10;77.60;;;;;;14869789;29;20262;-82
2021/01/12 20:31:57;;;;;;;84.57;51.83;;;;;;;;;;14830210;29;20206;-80
2021/01/12 20:39:24;;;;;;;80.93;50.83;;;;;;;;;;14825499;29;20243;-77
2021/01/12 20:46:52;;;;;;;79.10;50.50;;;;;;;;;;14844036;29;20188;-78
2021/01/12 20:54:21;;;;;;;76.00;50.00;;;3.70;77.10;;;;;;14841789;29;20286;-79
2021/01/12 21:01:48;;;;;;;77.20;49.90;;;;;;;;;;14841964;29;20235;-76
2021/01/12 21:09:15;;;;;;;70.63;48.93;;;;;;;;;;14840479;29;20211;-77
2021/01/12 21:16:43;;;;;;;63.17;43.23;;;;;;;;;;14833260;29;20436;-77
2021/01/12 21:24:12;;;;;;;61.23;42.83;;;;;;;;;;14829336;29;20607;-78
2021/01/12 21:31:39;;;;;;;52.13;37.53;;;;;;;;;;14830622;29;20318;-78
2021/01/12 21:39:07;;;;;;;54.53;37.40;;;;;;;;;;14839969;29;20224;-78
2021/01/12 21:46:34;;;;;;;51.17;36.13;;;;;;;;;;14856441;29;20204;-79
2021/01/12 21:54:01;;;;;;;47.83;35.67;;;;;;;;;;14843096;29;20197;-87
2021/01/12 22:01:31;;;;;;;53.37;38.97;;;3.50;79.40;;;;;;14846181;29;20660;-78
2021/01/12 22:09:00;;;;;;;51.37;38.03;;;;;;;;;;14845445;29;20244;-77
2021/01/12 22:16:27;;;;;;;53.70;38.07;;;;;;;;;;14849064;29;20295;-82
2021/01/12 22:23:55;;;;;;;53.20;37.70;;;;;;;;;;14848521;29;20232;-81
2021/01/12 22:31:22;;;;;;;51.07;37.67;;;;;;;;;;14816715;29;20208;-81
2021/01/12 22:38:50;;;;;;;50.03;37.13;;;;;;;;;;14848128;29;20226;-80
2021/01/12 22:46:19;;;;;;;51.83;37.37;;;;;;;;;;14843252;29;20606;-82
2021/01/12 22:53:47;;;;;;;51.17;37.97;;;;;;;;;;14860120;29;20708;-77
2021/01/12 23:01:16;;;;;;;52.03;41.90;;;;;;;;;;14839331;29;20468;-78
2021/01/12 23:08:43;;;;;;;46.03;36.37;;;;;;;;;;14840127;29;20623;-83
2021/01/12 23:16:11;;;;;;;47.67;35.73;;;;;;;;;;14828352;29;20207;-80
2021/01/12 23:23:39;;;;;;;48.27;35.20;;;;;;;;;;14859459;29;20331;-80
2021/01/12 23:31:07;;;;;;;47.37;36.83;;;;;;;;;;14842920;29;20204;-80
2021/01/12 23:38:35;;;;;;;44.77;35.20;;;;;;;;;;14858417;29;20307;-78
2021/01/12 23:46:03;;;;;;;46.53;36.97;;;;;;;;;;14838409;29;20284;-79
2021/01/12 23:53:35;;;;;;;49.87;37.40;;;;;;;;;;14822712;29;20216;-78
